createdAt,value
2022-11-02T00:00:13.794Z,2.00
2022-11-02T00:02:40.587Z,2.55
2022-11-02T00:05:08.088Z,2.00
2022-11-02T00:07:34.491Z,2.05
2022-11-02T00:10:01.197Z,1.88
2022-11-02T00:12:27.711Z,2.63
2022-11-02T00:14:54.132Z,2.80
2022-11-02T00:17:20.547Z,2.38
2022-11-02T00:19:46.907Z,2.53
2022-11-02T00:22:13.289Z,2.90
2022-11-02T00:24:39.669Z,1.98
2022-11-02T00:27:06.263Z,2.25
2022-11-02T00:29:34.201Z,2.38
2022-11-02T00:32:01.103Z,1.73
2022-11-02T00:34:28.075Z,2.03
2022-11-02T00:36:55.606Z,2.00
2022-11-02T00:39:22.550Z,2.03
2022-11-02T00:41:49.018Z,2.30
2022-11-02T00:44:15.684Z,2.60
2022-11-02T00:46:42.801Z,2.78
2022-11-02T00:49:09.277Z,1.85
2022-11-02T00:51:35.735Z,1.98
2022-11-02T00:54:02.182Z,2.30
2022-11-02T00:56:28.737Z,1.90
2022-11-02T00:58:55.628Z,1.92
2022-11-02T01:01:22.167Z,2.33
2022-11-02T01:03:48.590Z,2.38
2022-11-02T01:06:15.505Z,2.38
2022-11-02T01:08:42.090Z,2.22
2022-11-02T01:11:09.329Z,2.55
2022-11-02T01:13:35.693Z,2.00
2022-11-02T01:16:05.302Z,2.47
2022-11-02T01:18:31.680Z,2.28
2022-11-02T01:20:58.751Z,2.47
2022-11-02T01:23:25.673Z,2.40
2022-11-02T01:25:52.707Z,2.38
2022-11-02T01:28:19.345Z,2.35
2022-11-02T01:30:47.413Z,2.58
2022-11-02T01:33:13.752Z,2.25
2022-11-02T01:35:40.467Z,2.00
2022-11-02T01:38:07.149Z,2.05
2022-11-02T01:40:37.670Z,2.47
2022-11-02T01:43:20.854Z,2.22
2022-11-02T01:45:47.737Z,3.15
2022-11-02T01:48:14.233Z,2.22
2022-11-02T01:50:40.928Z,2.40
2022-11-02T01:53:07.305Z,2.03
2022-11-02T01:55:34.616Z,2.00
2022-11-02T01:58:03.047Z,2.55
2022-11-02T02:00:30.022Z,2.50
2022-11-02T02:02:56.415Z,2.25
2022-11-02T02:05:24.184Z,2.15
2022-11-02T02:07:51.189Z,2.67
2022-11-02T02:10:17.634Z,2.47
2022-11-02T02:12:44.216Z,2.28
2022-11-02T02:15:14.520Z,2.00
2022-11-02T02:17:50.291Z,2.17
2022-11-02T02:20:20.210Z,1.85
2022-11-02T02:23:05.563Z,2.20
2022-11-02T02:25:50.941Z,2.80
2022-11-02T02:28:25.788Z,1.90
2022-11-02T02:31:11.148Z,2.05
2022-11-02T02:33:47.975Z,2.70
2022-11-02T02:36:34.696Z,1.95
2022-11-02T02:39:08.522Z,2.55
2022-11-02T02:41:44.132Z,2.17
2022-11-02T02:44:13.776Z,2.92
2022-11-02T02:46:44.081Z,3.00
2022-11-02T02:49:15.799Z,2.42
2022-11-02T02:51:43.201Z,1.98
2022-11-02T02:54:12.501Z,1.80
2022-11-02T02:56:41.575Z,2.10
2022-11-02T02:59:11.339Z,2.13
2022-11-02T03:01:39.806Z,2.13
2022-11-02T03:04:06.227Z,1.73
2022-11-02T03:06:33.984Z,2.00
2022-11-02T03:09:03.944Z,2.70
2022-11-02T03:11:31.009Z,2.13
2022-11-02T03:14:00.225Z,1.85
2022-11-02T03:16:44.086Z,1.83
2022-11-02T03:19:20.546Z,2.00
2022-11-02T03:21:49.920Z,1.90
2022-11-02T03:24:17.999Z,1.95
2022-11-02T03:26:44.650Z,2.40
2022-11-02T03:29:22.198Z,1.80
2022-11-02T03:32:04.401Z,2.03
2022-11-02T03:34:46.809Z,2.00
2022-11-02T03:37:18.106Z,2.05
2022-11-02T03:39:55.563Z,1.75
2022-11-02T03:42:23.824Z,2.88
2022-11-02T03:44:56.133Z,2.05
2022-11-02T03:47:25.968Z,2.17
2022-11-02T03:49:54.223Z,2.10
2022-11-02T03:52:23.351Z,1.95
2022-11-02T03:55:07.075Z,2.08
2022-11-02T03:57:42.824Z,1.90
2022-11-02T04:00:11.308Z,1.75
2022-11-02T04:02:51.309Z,1.90
2022-11-02T04:05:18.113Z,1.75
2022-11-02T04:08:05.014Z,1.73
2022-11-02T04:10:32.142Z,1.63
2022-11-02T04:13:17.847Z,2.03
2022-11-02T04:15:44.283Z,1.98
2022-11-02T04:18:30.225Z,1.83
2022-11-02T04:20:57.548Z,2.05
2022-11-02T04:23:42.680Z,2.53
2022-11-02T04:26:09.147Z,2.00
2022-11-02T04:28:40.684Z,2.92
2022-11-02T04:31:07.627Z,1.40
2022-11-02T04:33:37.900Z,1.67
2022-11-02T04:36:13.545Z,1.92
2022-11-02T04:38:40.591Z,1.50
2022-11-02T04:41:42.410Z,1.90
2022-11-02T04:44:20.792Z,1.80
2022-11-02T04:46:56.060Z,1.85
2022-11-02T04:49:25.965Z,2.22
2022-11-02T04:51:53.420Z,1.67
2022-11-02T04:54:20.517Z,2.63
2022-11-02T04:56:52.109Z,2.03
2022-11-02T04:59:20.833Z,2.03
2022-11-02T05:01:48.206Z,2.17
2022-11-02T05:04:16.144Z,2.13
2022-11-02T05:06:42.520Z,2.10
2022-11-02T05:09:10.130Z,2.13
2022-11-02T05:11:40.741Z,1.73
2022-11-02T05:14:07.479Z,2.55
2022-11-02T05:16:33.884Z,1.77
2022-11-02T05:19:02.799Z,2.63
2022-11-02T05:21:31.521Z,1.90
2022-11-02T05:23:58.300Z,2.75
2022-11-02T05:26:24.731Z,2.75
2022-11-02T05:28:52.632Z,2.00
2022-11-02T05:31:20.115Z,1.90
2022-11-02T05:33:47.867Z,1.88
2022-11-02T05:36:18.393Z,2.10
2022-11-02T05:38:47.633Z,2.20
2022-11-02T05:41:14.472Z,2.42
2022-11-02T05:43:42.302Z,2.00
2022-11-02T05:46:11.415Z,2.05
2022-11-02T05:48:37.804Z,2.58
2022-11-02T05:51:04.308Z,2.40
2022-11-02T05:53:32.459Z,2.85
2022-11-02T05:55:59.103Z,2.72
2022-11-02T05:58:25.706Z,1.83
2022-11-02T06:00:52.174Z,2.20
2022-11-02T06:03:18.546Z,2.15
2022-11-02T06:05:45.059Z,2.58
2022-11-02T06:08:11.555Z,2.60
2022-11-02T06:10:38.502Z,2.35
2022-11-02T06:13:05.366Z,1.92
2022-11-02T06:15:32.386Z,2.30
2022-11-02T06:17:58.881Z,2.38
2022-11-02T06:20:25.571Z,1.90
2022-11-02T06:22:52.045Z,2.67
2022-11-02T06:25:19.198Z,2.13
2022-11-02T06:27:53.169Z,1.98
2022-11-02T06:30:20.401Z,2.17
2022-11-02T06:32:50.740Z,2.20
2022-11-02T06:35:17.997Z,2.28
2022-11-02T06:37:45.021Z,2.08
2022-11-02T06:40:12.352Z,1.90
2022-11-02T06:42:45.090Z,2.50
2022-11-02T06:45:23.185Z,2.45
2022-11-02T06:47:49.621Z,1.80
2022-11-02T06:50:16.202Z,2.53
2022-11-02T06:52:44.246Z,2.28
2022-11-02T06:55:14.292Z,2.80
2022-11-02T06:57:41.131Z,2.25
2022-11-02T07:02:40.835Z,4.78
2022-11-02T07:05:07.525Z,3.20
2022-11-02T07:07:33.879Z,2.60
2022-11-02T07:10:00.264Z,2.08
2022-11-02T07:12:26.823Z,2.10
2022-11-02T07:14:53.260Z,2.10
2022-11-02T07:17:19.656Z,2.72
2022-11-02T07:19:46.070Z,3.22
2022-11-02T07:22:12.431Z,2.45
2022-11-02T07:24:38.973Z,2.78
2022-11-02T07:27:05.365Z,2.60
2022-11-02T07:29:31.724Z,2.20
2022-11-02T07:31:58.140Z,2.20
2022-11-02T07:34:24.559Z,2.55
2022-11-02T07:36:50.977Z,2.13
2022-11-02T07:39:18.862Z,2.05
2022-11-02T07:41:50.813Z,1.92
2022-11-02T07:44:18.219Z,2.23
2022-11-02T07:46:53.806Z,2.58
2022-11-02T07:49:21.592Z,3.22
2022-11-02T07:51:48.307Z,2.70
2022-11-02T07:54:14.677Z,1.90
2022-11-02T07:56:41.215Z,2.40
2022-11-02T07:59:09.822Z,2.63
2022-11-02T08:01:36.305Z,2.28
2022-11-02T08:04:02.731Z,2.28
2022-11-02T08:06:29.579Z,2.15
2022-11-02T08:08:56.743Z,2.22
2022-11-02T08:11:23.102Z,1.83
2022-11-02T08:13:49.586Z,2.42
2022-11-02T08:16:15.939Z,2.33
2022-11-02T08:18:42.322Z,1.85
2022-11-02T08:21:08.685Z,2.67
2022-11-02T08:23:35.180Z,2.47
2022-11-02T08:26:01.573Z,2.20
2022-11-02T08:28:31.011Z,2.53
2022-11-02T08:30:58.015Z,2.50
2022-11-02T08:33:24.421Z,2.05
2022-11-02T08:35:51.275Z,2.50
2022-11-02T08:38:18.256Z,2.95
2022-11-02T08:40:47.761Z,2.55
2022-11-02T08:43:14.824Z,2.47
2022-11-02T08:46:13.250Z,2.55
2022-11-02T08:48:28.945Z,2.47
2022-11-02T08:50:56.244Z,2.88
2022-11-02T08:53:22.762Z,2.30
2022-11-02T08:55:49.124Z,2.72
2022-11-02T08:58:15.530Z,2.58
2022-11-02T09:00:41.959Z,2.15
2022-11-02T09:03:09.951Z,3.08
2022-11-02T09:05:37.858Z,2.75
2022-11-02T09:08:05.958Z,2.80
2022-11-02T09:10:33.605Z,2.45
2022-11-02T09:13:00.689Z,3.00
2022-11-02T09:15:27.682Z,2.60
2022-11-02T09:17:54.323Z,2.67
2022-11-02T09:20:21.252Z,2.38
2022-11-02T09:22:47.885Z,2.70
2022-11-02T09:25:14.949Z,2.55
2022-11-02T09:27:41.830Z,3.45
2022-11-02T09:30:08.645Z,2.90
2022-11-02T09:32:35.217Z,3.03
2022-11-02T09:35:02.810Z,2.38
2022-11-02T09:37:29.451Z,2.35
2022-11-02T09:39:55.977Z,2.30
2022-11-02T09:42:25.193Z,2.35
2022-11-02T09:44:58.243Z,2.83
2022-11-02T09:48:10.690Z,2.47
2022-11-02T09:50:18.398Z,1.67
2022-11-02T09:52:47.742Z,2.55
2022-11-02T09:55:19.296Z,2.88
2022-11-02T09:57:47.418Z,1.95
2022-11-02T10:00:14.558Z,2.78
2022-11-02T10:02:41.007Z,2.33
2022-11-02T10:05:25.985Z,2.55
2022-11-02T10:07:58.234Z,2.67
2022-11-02T10:10:38.889Z,2.20
2022-11-02T10:13:11.338Z,2.30
2022-11-02T10:15:52.623Z,2.38
2022-11-02T10:18:20.627Z,2.05
2022-11-02T10:20:49.645Z,2.60
2022-11-02T10:23:26.799Z,2.05
2022-11-02T10:25:53.258Z,2.72
2022-11-02T10:28:23.306Z,2.40
2022-11-02T10:30:50.256Z,2.35
2022-11-02T10:33:17.997Z,1.88
2022-11-02T10:38:33.912Z,2.30
2022-11-02T10:41:19.149Z,2.00
2022-11-02T10:44:01.601Z,2.25
2022-11-02T10:46:46.678Z,2.00
2022-11-02T10:49:31.789Z,1.80
2022-11-02T10:51:59.153Z,2.50
2022-11-02T10:54:30.969Z,2.15
2022-11-02T10:57:05.022Z,3.13
2022-11-02T10:59:31.434Z,2.35
2022-11-02T11:01:58.844Z,3.08
2022-11-02T11:04:26.529Z,2.30
2022-11-02T11:06:53.130Z,2.00
2022-11-02T11:09:19.597Z,2.33
2022-11-02T11:12:04.539Z,2.63
2022-11-02T11:20:30.642Z,1.70
2022-11-02T11:23:09.662Z,2.17
2022-11-02T11:25:36.059Z,2.47
2022-11-02T11:28:02.932Z,2.72
2022-11-02T11:30:58.887Z,2.13
2022-11-02T11:33:20.555Z,2.10
2022-11-02T11:35:48.779Z,2.13
2022-11-02T11:38:17.148Z,2.13
2022-11-02T11:40:44.735Z,2.40
2022-11-02T11:43:15.206Z,2.10
2022-11-02T11:45:53.254Z,1.85
2022-11-02T11:48:32.727Z,2.13
2022-11-02T11:51:00.712Z,1.80
2022-11-02T11:53:27.618Z,2.00
2022-11-02T11:55:55.359Z,1.90
2022-11-02T11:58:21.819Z,2.40
2022-11-02T12:01:20.916Z,1.90
2022-11-02T12:04:01.265Z,2.60
2022-11-02T12:06:52.633Z,2.40
2022-11-02T12:09:31.633Z,2.45
2022-11-02T12:12:17.263Z,2.22
2022-11-02T12:14:51.900Z,2.00
2022-11-02T12:17:23.636Z,2.95
2022-11-02T12:20:06.465Z,2.50
2022-11-02T12:22:58.967Z,2.50
2022-11-02T12:25:36.972Z,1.88
2022-11-02T12:28:39.007Z,2.00
2022-11-02T12:31:11.273Z,1.52
2022-11-02T12:34:16.209Z,2.00
2022-11-02T12:37:18.064Z,1.85
2022-11-02T12:39:42.958Z,1.80
2022-11-02T12:42:27.482Z,1.73
2022-11-02T12:45:00.105Z,1.67
2022-11-02T12:47:29.304Z,1.90
2022-11-02T12:49:55.683Z,1.80
2022-11-02T12:52:40.888Z,1.50
2022-11-02T12:55:17.056Z,1.40
2022-11-02T12:57:44.257Z,1.80
2022-11-02T13:00:20.856Z,1.42
2022-11-02T13:02:51.794Z,1.80
2022-11-02T13:05:23.025Z,1.42
2022-11-02T13:07:53.294Z,1.90
2022-11-02T13:10:43.072Z,1.52
2022-11-02T13:13:12.690Z,1.77
2022-11-02T13:15:39.694Z,2.10
2022-11-02T13:18:10.452Z,1.73
2022-11-02T13:20:44.401Z,2.03
2022-11-02T13:23:21.792Z,1.70
2022-11-02T13:25:51.700Z,1.92
2022-11-02T13:28:23.636Z,1.92
2022-11-02T13:30:50.573Z,1.60
2022-11-02T13:33:23.169Z,7.20
2022-11-02T13:35:51.544Z,2.22
2022-11-02T13:38:36.787Z,1.92
2022-11-02T13:41:21.962Z,1.70
2022-11-02T13:43:48.328Z,1.95
2022-11-02T13:46:14.678Z,1.52
2022-11-02T13:48:49.363Z,1.80
2022-11-02T13:51:24.912Z,1.77
2022-11-02T13:53:54.323Z,2.53
2022-11-02T13:56:21.997Z,1.75
2022-11-02T13:58:53.249Z,1.45
2022-11-02T14:01:19.923Z,1.63
2022-11-02T14:03:46.321Z,2.05
2022-11-02T14:06:14.465Z,1.58
2022-11-02T14:08:42.222Z,1.73
2022-11-02T14:11:08.569Z,1.83
2022-11-02T14:14:06.026Z,1.80
2022-11-02T14:16:51.020Z,1.42
2022-11-02T14:19:19.202Z,1.63
2022-11-02T14:21:49.803Z,1.60
2022-11-02T14:24:34.756Z,2.05
2022-11-02T14:27:02.389Z,2.20
2022-11-02T14:29:46.926Z,1.52
2022-11-02T14:32:30.829Z,2.05
2022-11-02T14:34:57.191Z,1.48
2022-11-02T14:37:42.353Z,1.40
2022-11-02T14:40:27.129Z,1.70
2022-11-02T14:43:08.319Z,1.02
2022-11-02T14:45:53.259Z,1.30
2022-11-02T14:48:19.703Z,1.45
2022-11-02T14:51:01.355Z,1.67
2022-11-02T14:53:28.794Z,1.83
2022-11-02T14:55:56.247Z,1.30
2022-11-02T14:58:42.898Z,1.80
2022-11-02T15:01:13.123Z,8.20
2022-11-02T15:03:41.309Z,2.38
2022-11-02T15:06:10.700Z,4.43
2022-11-02T15:08:43.002Z,2.38
2022-11-02T15:11:28.328Z,1.90
2022-11-02T15:13:54.758Z,2.30
2022-11-02T15:16:21.842Z,2.35
2022-11-02T15:18:48.417Z,1.88
2022-11-02T15:21:15.500Z,2.97
2022-11-02T15:23:43.320Z,2.30
2022-11-02T15:26:12.316Z,2.00
2022-11-02T15:28:38.961Z,2.17
2022-11-02T15:31:07.307Z,1.90
2022-11-02T15:33:44.183Z,2.65
2022-11-02T15:36:17.982Z,2.25
2022-11-02T15:41:21.801Z,2.55
2022-11-02T15:43:48.437Z,4.72
2022-11-02T15:46:17.846Z,3.72
2022-11-02T15:49:01.354Z,3.33
2022-11-02T15:51:27.746Z,2.90
2022-11-02T15:54:13.009Z,2.72
2022-11-02T15:56:45.680Z,2.85
2022-11-02T15:59:24.274Z,3.17
2022-11-02T16:02:23.717Z,2.55
2022-11-02T16:04:51.758Z,3.95
2022-11-02T16:07:18.699Z,3.30
2022-11-02T16:09:48.795Z,3.53
2022-11-02T16:12:19.451Z,4.05
2022-11-02T16:14:51.746Z,2.90
2022-11-02T16:17:19.012Z,3.33
2022-11-02T16:19:45.395Z,3.38
2022-11-02T16:22:12.248Z,3.10
2022-11-02T16:24:44.960Z,3.30
2022-11-02T16:27:12.553Z,4.00
2022-11-02T16:29:40.473Z,4.40
2022-11-02T16:32:10.704Z,14.13
2022-11-02T16:34:37.736Z,7.32
2022-11-02T16:37:09.987Z,4.95
2022-11-02T16:39:39.571Z,4.63
2022-11-02T16:42:08.081Z,5.25
2022-11-02T16:44:34.899Z,4.25
2022-11-02T16:47:16.013Z,4.13
2022-11-02T16:49:51.250Z,4.43
2022-11-02T16:52:19.519Z,3.90
2022-11-02T16:54:46.095Z,4.45
2022-11-02T16:57:12.654Z,4.43
2022-11-02T16:59:57.649Z,3.80
2022-11-02T17:02:36.275Z,4.38
2022-11-02T17:05:06.418Z,4.65
2022-11-02T17:07:41.551Z,3.60
2022-11-02T17:10:09.207Z,3.58
2022-11-02T17:12:37.936Z,4.05
2022-11-02T17:15:11.108Z,4.40
2022-11-02T17:17:40.595Z,3.88
2022-11-02T17:20:15.243Z,3.83
2022-11-02T17:22:47.714Z,4.82
2022-11-02T17:25:27.853Z,5.38
2022-11-02T17:27:55.517Z,4.80
2022-11-02T17:30:34.226Z,4.18
2022-11-02T17:33:00.646Z,5.40
2022-11-02T17:35:27.720Z,4.50
2022-11-02T17:37:54.400Z,4.75
2022-11-02T17:40:21.829Z,6.88
2022-11-02T17:43:00.930Z,5.65
2022-11-02T17:45:31.653Z,8.23
2022-11-02T17:47:59.050Z,6.95
2022-11-02T17:50:26.596Z,7.30
2022-11-02T17:52:53.402Z,11.02
2022-11-02T17:55:23.996Z,12.98
2022-11-02T17:57:50.434Z,6.13
2022-11-02T18:00:17.692Z,4.65
2022-11-02T18:02:44.892Z,3.83
2022-11-02T18:05:22.066Z,4.82
2022-11-02T18:07:48.655Z,2.67
2022-11-02T18:10:16.664Z,2.97
2022-11-02T18:12:43.182Z,2.85
2022-11-02T18:15:20.355Z,2.92
2022-11-02T18:17:47.073Z,2.97
2022-11-02T18:20:14.565Z,2.95
2022-11-02T18:22:40.985Z,3.25
2022-11-02T18:25:12.917Z,3.70
2022-11-02T18:27:42.793Z,3.63
2022-11-02T18:30:11.548Z,3.38
2022-11-02T18:32:38.692Z,4.00
2022-11-02T18:35:06.051Z,3.90
2022-11-02T18:37:32.650Z,5.05
2022-11-02T18:39:59.120Z,5.82
2022-11-02T18:42:25.742Z,6.75
2022-11-02T18:44:52.201Z,5.75
2022-11-02T18:47:18.640Z,4.60
2022-11-02T18:49:45.102Z,4.65
2022-11-02T18:52:11.486Z,13.35
2022-11-02T18:54:37.901Z,5.57
2022-11-02T18:57:04.345Z,4.57
2022-11-02T18:59:30.875Z,4.70
2022-11-02T19:01:57.556Z,4.80
2022-11-02T19:04:24.194Z,4.45
2022-11-02T19:07:12.415Z,4.85
2022-11-02T19:09:41.759Z,5.07
2022-11-02T19:12:19.700Z,4.15
2022-11-02T19:14:47.027Z,4.13
2022-11-02T19:17:14.131Z,3.90
2022-11-02T19:19:42.962Z,4.35
2022-11-02T19:22:11.473Z,3.85
2022-11-02T19:24:37.889Z,4.20
2022-11-02T19:27:04.322Z,4.68
2022-11-02T19:29:30.700Z,6.78
2022-11-02T19:31:57.084Z,5.22
2022-11-02T19:34:23.951Z,4.72
2022-11-02T19:36:50.341Z,4.18
2022-11-02T19:39:16.741Z,4.57
2022-11-02T19:41:43.193Z,4.53
2022-11-02T19:44:09.590Z,5.47
2022-11-02T19:46:36.189Z,5.25
2022-11-02T19:49:02.824Z,5.13
2022-11-02T19:51:30.582Z,4.60
2022-11-02T19:53:58.671Z,4.60
2022-11-02T19:56:25.469Z,4.40
2022-11-02T19:58:52.200Z,3.67
2022-11-02T20:01:23.160Z,5.45
2022-11-02T20:03:50.259Z,5.03
2022-11-02T20:06:23.076Z,5.45
2022-11-02T20:08:50.530Z,6.40
2022-11-02T20:11:17.233Z,6.82
2022-11-02T20:13:44.332Z,5.88
2022-11-02T20:16:12.303Z,7.47
2022-11-02T20:18:39.905Z,6.55
2022-11-02T20:21:07.318Z,6.85
2022-11-02T20:23:34.184Z,10.25
2022-11-02T20:26:01.416Z,8.20
2022-11-02T20:28:28.024Z,5.50
2022-11-02T20:30:54.489Z,5.85
2022-11-02T20:33:20.964Z,7.35
2022-11-02T20:35:47.612Z,6.38
2022-11-02T20:38:14.218Z,6.22
2022-11-02T20:40:41.484Z,4.97
2022-11-02T20:43:08.178Z,5.38
2022-11-02T20:45:34.735Z,5.97
2022-11-02T20:48:01.565Z,6.32
2022-11-02T20:50:28.767Z,5.13
2022-11-02T20:52:56.152Z,5.25
2022-11-02T20:55:22.877Z,5.85
2022-11-02T20:57:49.404Z,5.43
2022-11-02T21:00:19.008Z,5.93
2022-11-02T21:02:45.969Z,13.70
2022-11-02T21:05:12.917Z,9.23
2022-11-02T21:07:39.620Z,11.93
2022-11-02T21:10:06.453Z,8.55
2022-11-02T21:12:51.447Z,8.75
2022-11-02T21:15:17.913Z,6.55
2022-11-02T21:17:44.561Z,6.55
2022-11-02T21:20:32.829Z,5.78
2022-11-02T21:22:58.803Z,5.47
2022-11-02T21:25:25.303Z,5.90
2022-11-02T21:27:51.773Z,4.95
2022-11-02T21:30:18.366Z,6.03
2022-11-02T21:32:44.753Z,5.63
2022-11-02T21:35:11.145Z,5.55
2022-11-02T21:37:37.613Z,6.65
2022-11-02T21:40:04.434Z,6.20
2022-11-02T21:42:30.957Z,5.57
2022-11-02T21:44:57.354Z,5.18
2022-11-02T21:47:23.837Z,5.95
2022-11-02T21:49:50.271Z,6.70
2022-11-02T21:52:16.685Z,6.60
2022-11-02T21:54:43.065Z,6.57
2022-11-02T21:57:09.459Z,6.53
2022-11-02T21:59:35.844Z,6.68
2022-11-02T22:02:02.333Z,7.65
2022-11-02T22:04:30.744Z,7.28
2022-11-02T22:07:00.961Z,6.45
2022-11-02T22:09:28.284Z,6.00
2022-11-02T22:12:13.898Z,6.32
2022-11-02T22:14:40.933Z,7.10
2022-11-02T22:17:16.734Z,5.97
2022-11-02T22:19:54.077Z,6.95
2022-11-02T22:22:20.528Z,6.68
2022-11-02T22:24:47.605Z,6.50
2022-11-02T22:27:14.123Z,5.28
2022-11-02T22:29:40.522Z,6.03
2022-11-02T22:32:06.932Z,6.45
2022-11-02T22:34:33.340Z,5.72
2022-11-02T22:37:19.672Z,5.57
2022-11-02T22:39:46.068Z,5.72
2022-11-02T22:42:12.632Z,5.32
2022-11-02T22:44:39.002Z,5.75
2022-11-02T22:47:05.445Z,4.95
2022-11-02T22:49:31.836Z,5.53
2022-11-02T22:51:58.313Z,6.15
2022-11-02T22:54:24.694Z,6.13
2022-11-02T22:56:51.074Z,5.32
2022-11-02T22:59:17.544Z,6.78
2022-11-02T23:01:45.285Z,5.95
2022-11-02T23:04:12.053Z,5.93
2022-11-02T23:06:38.461Z,6.80
2022-11-02T23:09:05.137Z,5.65
2022-11-02T23:11:33.021Z,5.93
2022-11-02T23:14:17.766Z,5.78
2022-11-02T23:16:47.811Z,5.85
2022-11-02T23:19:29.587Z,5.40
2022-11-02T23:22:17.972Z,6.63
2022-11-02T23:25:06.796Z,6.20
2022-11-02T23:27:34.079Z,5.90
2022-11-02T23:30:19.172Z,5.93
2022-11-02T23:32:45.533Z,5.90
2022-11-02T23:35:30.283Z,6.40
2022-11-02T23:38:03.877Z,6.22
2022-11-02T23:40:30.441Z,5.60
2022-11-02T23:42:56.855Z,5.38
2022-11-02T23:45:23.419Z,5.32
2022-11-02T23:48:01.258Z,4.95
2022-11-02T23:50:47.867Z,5.07
2022-11-02T23:53:33.859Z,5.38
2022-11-02T23:56:19.410Z,4.80
2022-11-02T23:58:46.148Z,5.05
